createdAt,value
2018-11-27T00:01:05.124Z,101057.00
2018-11-27T00:03:39.604Z,101060.00
2018-11-27T00:06:09.760Z,101056.00
2018-11-27T00:08:38.824Z,101066.00
2018-11-27T00:11:07.898Z,101061.00
2018-11-27T00:13:36.944Z,101066.00
2018-11-27T00:16:06.540Z,101069.00
2018-11-27T00:18:35.780Z,101064.00
2018-11-27T00:21:04.826Z,101063.00
2018-11-27T00:23:33.929Z,101075.00
2018-11-27T00:26:02.988Z,101070.00
2018-11-27T00:28:32.046Z,101072.00
2018-11-27T00:31:01.220Z,101071.00
2018-11-27T00:33:30.281Z,101073.00
2018-11-27T00:35:59.323Z,101065.00
2018-11-27T00:38:28.350Z,101068.00
2018-11-27T00:40:57.445Z,101080.00
2018-11-27T00:43:26.429Z,101071.00
2018-11-27T00:45:55.477Z,101077.00
2018-11-27T00:48:24.505Z,101075.00
2018-11-27T00:50:54.318Z,101078.00
2018-11-27T00:53:23.504Z,101081.00
2018-11-27T00:55:52.604Z,101086.00
2018-11-27T00:58:21.698Z,101083.00
2018-11-27T01:00:50.776Z,101088.00
2018-11-27T01:03:19.914Z,101095.00
2018-11-27T01:05:49.964Z,101099.00
2018-11-27T01:08:19.027Z,101089.00
2018-11-27T01:10:48.057Z,101105.00
2018-11-27T01:13:17.098Z,101091.00
2018-11-27T01:15:46.128Z,101094.00
2018-11-27T01:18:15.296Z,101102.00
2018-11-27T01:20:44.490Z,101105.00
2018-11-27T01:23:14.160Z,101096.00
2018-11-27T01:25:43.456Z,101091.00
2018-11-27T01:28:12.914Z,101094.00
2018-11-27T01:30:42.502Z,101104.00
2018-11-27T01:33:13.340Z,101096.00
2018-11-27T01:35:43.269Z,101106.00
2018-11-27T01:38:12.428Z,101104.00
2018-11-27T01:40:48.082Z,101107.00
2018-11-27T01:43:17.133Z,101102.00
2018-11-27T01:45:46.262Z,101105.00
2018-11-27T01:48:16.316Z,101113.00
2018-11-27T01:50:45.422Z,101101.00
2018-11-27T01:53:15.208Z,101110.00
2018-11-27T01:55:44.463Z,101107.00
2018-11-27T01:58:14.509Z,101105.00
2018-11-27T02:00:43.575Z,101113.00
2018-11-27T02:03:12.659Z,101117.00
2018-11-27T02:05:41.729Z,101113.00
2018-11-27T02:08:11.882Z,101121.00
2018-11-27T02:10:41.034Z,101120.00
2018-11-27T02:13:10.125Z,101121.00
2018-11-27T02:15:39.229Z,101123.00
2018-11-27T02:18:08.321Z,101118.00
2018-11-27T02:20:37.786Z,101119.00
2018-11-27T02:23:07.149Z,101120.00
2018-11-27T02:25:36.257Z,101119.00
2018-11-27T02:28:05.623Z,101118.00
2018-11-27T02:30:34.724Z,101119.00
2018-11-27T02:33:04.793Z,101114.00
2018-11-27T02:35:34.120Z,101046.00
2018-11-27T02:38:03.259Z,101113.00
2018-11-27T02:40:32.769Z,101120.00
2018-11-27T02:43:01.885Z,101124.00
2018-11-27T02:45:31.013Z,101126.00
2018-11-27T02:48:00.324Z,101126.00
2018-11-27T02:50:29.470Z,101129.00
2018-11-27T02:52:58.805Z,101132.00
2018-11-27T02:55:27.916Z,101124.00
2018-11-27T02:57:56.994Z,101132.00
2018-11-27T03:00:27.704Z,101136.00
2018-11-27T03:02:56.909Z,101143.00
2018-11-27T03:05:30.810Z,101140.00
2018-11-27T03:07:59.907Z,101136.00
2018-11-27T03:10:29.032Z,101136.00
2018-11-27T03:12:58.800Z,101141.00
2018-11-27T03:15:28.428Z,101142.00
2018-11-27T03:17:58.406Z,101149.00
2018-11-27T03:20:28.117Z,101150.00
2018-11-27T03:22:58.008Z,101147.00
2018-11-27T03:25:27.357Z,101148.00
2018-11-27T03:27:56.752Z,101151.00
2018-11-27T03:30:26.826Z,101149.00
2018-11-27T03:32:55.989Z,101143.00
2018-11-27T03:35:25.895Z,101145.00
2018-11-27T03:37:55.126Z,101156.00
2018-11-27T03:40:27.978Z,101162.00
2018-11-27T03:42:57.713Z,101164.00
2018-11-27T03:45:26.901Z,101161.00
2018-11-27T03:47:55.967Z,101159.00
2018-11-27T03:50:28.278Z,101169.00
2018-11-27T03:52:57.946Z,101160.00
2018-11-27T03:55:26.963Z,101161.00
2018-11-27T03:57:56.049Z,101170.00
2018-11-27T04:00:29.563Z,101180.00
2018-11-27T04:03:10.532Z,101181.00
2018-11-27T04:05:39.952Z,101167.00
2018-11-27T04:08:10.277Z,101171.00
2018-11-27T04:10:40.754Z,101177.00
2018-11-27T04:13:09.992Z,101177.00
2018-11-27T04:15:39.043Z,101180.00
2018-11-27T04:18:08.096Z,101180.00
2018-11-27T04:20:37.139Z,101179.00
2018-11-27T04:23:06.197Z,101183.00
2018-11-27T04:25:35.230Z,101175.00
2018-11-27T04:28:04.299Z,101187.00
2018-11-27T04:30:33.427Z,101182.00
2018-11-27T04:33:02.483Z,101181.00
2018-11-27T04:35:32.692Z,101186.00
2018-11-27T04:38:01.823Z,101177.00
2018-11-27T04:40:30.896Z,101184.00
2018-11-27T04:43:00.115Z,101196.00
2018-11-27T04:45:29.393Z,101189.00
2018-11-27T04:47:58.651Z,101185.00
2018-11-27T04:50:28.531Z,101192.00
2018-11-27T04:52:57.756Z,101194.00
2018-11-27T04:55:26.810Z,101193.00
2018-11-27T04:57:55.904Z,101198.00
2018-11-27T05:00:26.838Z,101194.00
2018-11-27T05:02:56.819Z,101187.00
2018-11-27T05:05:27.802Z,101201.00
2018-11-27T05:07:57.253Z,101199.00
2018-11-27T05:10:27.706Z,101203.00
2018-11-27T05:12:57.492Z,101209.00
2018-11-27T05:15:27.587Z,101207.00
2018-11-27T05:17:59.009Z,101208.00
2018-11-27T05:20:28.982Z,101215.00
2018-11-27T05:22:59.119Z,101217.00
2018-11-27T05:25:30.227Z,101220.00
2018-11-27T05:27:59.819Z,101216.00
2018-11-27T05:30:31.752Z,101220.00
2018-11-27T05:33:01.853Z,101219.00
2018-11-27T05:35:31.925Z,101220.00
2018-11-27T05:38:02.561Z,101230.00
2018-11-27T05:40:31.685Z,101225.00
2018-11-27T05:43:02.864Z,101225.00
2018-11-27T05:45:32.443Z,101228.00
2018-11-27T05:48:01.569Z,101233.00
2018-11-27T05:50:30.676Z,101235.00
2018-11-27T05:52:59.799Z,101244.00
2018-11-27T05:55:29.005Z,101235.00
2018-11-27T05:57:58.289Z,101242.00
2018-11-27T06:00:28.832Z,101237.00
2018-11-27T06:02:59.458Z,101237.00
2018-11-27T06:05:28.606Z,101237.00
2018-11-27T06:07:57.733Z,101237.00
2018-11-27T06:10:26.960Z,101227.00
2018-11-27T06:12:56.036Z,101239.00
2018-11-27T06:15:25.472Z,101247.00
2018-11-27T06:17:57.372Z,101258.00
2018-11-27T06:20:26.488Z,101263.00
2018-11-27T06:22:55.813Z,101257.00
2018-11-27T06:25:29.086Z,101268.00
2018-11-27T06:28:01.043Z,101267.00
2018-11-27T06:30:31.271Z,101265.00
2018-11-27T06:33:00.329Z,101262.00
2018-11-27T06:35:33.823Z,101267.00
2018-11-27T06:38:03.316Z,101270.00
2018-11-27T06:40:32.796Z,101275.00
2018-11-27T06:43:02.048Z,101273.00
2018-11-27T06:45:31.124Z,101281.00
2018-11-27T06:48:00.194Z,101279.00
2018-11-27T06:50:29.457Z,101281.00
2018-11-27T06:52:58.511Z,101288.00
2018-11-27T06:55:27.593Z,101287.00
2018-11-27T06:57:56.682Z,101292.00
2018-11-27T07:00:27.264Z,101291.00
2018-11-27T07:02:57.322Z,101299.00
2018-11-27T07:05:27.177Z,101299.00
2018-11-27T07:07:56.204Z,101312.00
2018-11-27T07:10:33.039Z,101314.00
2018-11-27T07:13:23.183Z,101319.00
2018-11-27T07:15:52.766Z,101328.00
2018-11-27T07:18:21.997Z,101326.00
2018-11-27T07:20:51.095Z,101331.00
2018-11-27T07:23:20.227Z,101329.00
2018-11-27T07:25:49.377Z,101336.00
2018-11-27T07:28:18.384Z,101344.00
2018-11-27T07:30:47.488Z,101346.00
2018-11-27T07:33:16.578Z,101347.00
2018-11-27T07:35:45.897Z,101349.00
2018-11-27T07:38:15.825Z,101358.00
2018-11-27T07:40:44.975Z,101350.00
2018-11-27T07:43:14.401Z,101365.00
2018-11-27T07:45:43.541Z,101352.00
2018-11-27T07:48:12.600Z,101370.00
2018-11-27T07:50:41.663Z,101368.00
2018-11-27T07:53:10.742Z,101366.00
2018-11-27T07:55:39.926Z,101361.00
2018-11-27T07:58:09.039Z,101370.00
2018-11-27T08:00:38.109Z,101377.00
2018-11-27T08:03:08.526Z,101381.00
2018-11-27T08:05:40.885Z,101382.00
2018-11-27T08:08:15.240Z,101380.00
2018-11-27T08:10:45.680Z,101376.00
2018-11-27T08:13:14.689Z,101374.00
2018-11-27T08:15:43.875Z,101384.00
2018-11-27T08:18:13.245Z,101382.00
2018-11-27T08:20:42.328Z,101389.00
2018-11-27T08:23:12.251Z,101384.00
2018-11-27T08:25:41.318Z,101382.00
2018-11-27T08:28:10.461Z,101394.00
2018-11-27T08:30:43.483Z,101395.00
2018-11-27T08:33:11.819Z,101403.00
2018-11-27T08:35:41.123Z,101404.00
2018-11-27T08:38:10.276Z,101403.00
2018-11-27T08:40:40.241Z,101403.00
2018-11-27T08:43:09.839Z,101412.00
2018-11-27T08:45:39.057Z,101409.00
2018-11-27T08:48:08.275Z,101412.00
2018-11-27T08:50:37.633Z,101415.00
2018-11-27T08:53:07.880Z,101423.00
2018-11-27T08:55:41.693Z,101417.00
2018-11-27T08:58:20.059Z,101417.00
2018-11-27T09:00:49.287Z,101433.00
2018-11-27T09:03:18.339Z,101447.00
2018-11-27T09:05:47.509Z,101440.00
2018-11-27T09:08:16.628Z,101450.00
2018-11-27T09:10:45.777Z,101462.00
2018-11-27T09:13:15.248Z,101454.00
2018-11-27T09:15:44.233Z,101457.00
2018-11-27T09:18:16.937Z,101464.00
2018-11-27T09:20:46.061Z,101472.00
2018-11-27T09:23:15.232Z,101471.00
2018-11-27T09:25:44.455Z,101473.00
2018-11-27T09:28:13.672Z,101474.00
2018-11-27T09:30:42.830Z,101476.00
2018-11-27T09:33:12.478Z,101480.00
2018-11-27T09:35:42.599Z,101481.00
2018-11-27T09:38:11.736Z,101479.00
2018-11-27T09:40:41.782Z,101473.00
2018-11-27T09:46:44.251Z,101488.00
2018-11-27T10:04:52.595Z,101496.00
2018-11-27T10:07:21.935Z,101492.00
2018-11-27T10:09:51.015Z,101496.00
2018-11-27T10:12:20.177Z,101494.00
2018-11-27T10:14:49.361Z,101488.00
2018-11-27T10:17:18.520Z,101498.00
2018-11-27T10:19:47.673Z,101485.00
2018-11-27T10:22:16.803Z,101483.00
2018-11-27T10:24:45.823Z,101482.00
2018-11-27T10:27:15.038Z,101477.00
2018-11-27T10:29:45.023Z,101481.00
2018-11-27T10:32:14.405Z,101475.00
2018-11-27T10:34:44.779Z,101486.00
2018-11-27T10:37:14.159Z,101486.00
2018-11-27T10:39:43.451Z,101476.00
2018-11-27T10:42:13.784Z,101470.00
2018-11-27T10:44:41.817Z,101470.00
2018-11-27T10:47:10.948Z,101466.00
2018-11-27T10:49:40.041Z,101465.00
2018-11-27T10:52:26.000Z,101464.00
2018-11-27T10:54:58.063Z,101472.00
2018-11-27T10:57:27.737Z,101479.00
2018-11-27T10:59:57.469Z,101479.00
2018-11-27T11:02:31.805Z,101472.00
2018-11-27T11:05:01.352Z,101473.00
2018-11-27T11:10:41.825Z,101483.00
2018-11-27T11:17:55.246Z,101473.00
2018-11-27T11:20:24.807Z,101474.00
2018-11-27T11:22:53.910Z,101476.00
2018-11-27T11:25:24.558Z,101490.00
2018-11-27T11:28:03.429Z,101484.00
2018-11-27T11:30:32.784Z,101489.00
2018-11-27T11:33:02.096Z,101484.00
2018-11-27T11:35:31.689Z,101484.00
2018-11-27T11:38:05.317Z,101496.00
2018-11-27T11:40:34.647Z,101494.00
2018-11-27T11:43:03.957Z,101493.00
2018-11-27T11:45:33.773Z,101494.00
2018-11-27T11:48:03.263Z,101500.00
2018-11-27T11:50:34.042Z,101496.00
2018-11-27T11:53:11.335Z,101500.00
2018-11-27T11:55:40.488Z,101496.00
2018-11-27T11:58:09.820Z,101498.00
2018-11-27T12:00:45.923Z,101497.00
2018-11-27T12:03:15.832Z,101502.00
2018-11-27T12:05:47.023Z,101496.00
2018-11-27T12:08:16.245Z,101500.00
2018-11-27T12:10:46.270Z,101509.00
2018-11-27T12:13:15.797Z,101505.00
2018-11-27T12:15:48.108Z,101510.00
2018-11-27T12:18:18.203Z,101505.00
2018-11-27T12:20:47.399Z,101510.00
2018-11-27T12:23:16.574Z,101502.00
2018-11-27T12:25:51.666Z,101507.00
2018-11-27T12:28:21.102Z,101504.00
2018-11-27T12:30:50.271Z,101505.00
2018-11-27T12:33:28.788Z,101500.00
2018-11-27T12:35:58.172Z,101497.00
2018-11-27T12:41:01.337Z,101504.00
2018-11-27T12:43:32.210Z,101501.00
2018-11-27T12:46:13.741Z,101494.00
2018-11-27T12:48:54.110Z,101507.00
2018-11-27T12:51:24.915Z,101502.00
2018-11-27T12:53:54.164Z,101502.00
2018-11-27T12:56:23.439Z,101493.00
2018-11-27T12:58:52.654Z,101492.00
2018-11-27T13:01:24.042Z,101498.00
2018-11-27T13:04:13.912Z,101493.00
2018-11-27T13:06:44.344Z,101491.00
2018-11-27T13:09:15.585Z,101499.00
2018-11-27T13:12:00.557Z,101506.00
2018-11-27T13:14:31.712Z,101502.00
2018-11-27T13:17:41.487Z,101512.00
2018-11-27T13:23:22.798Z,101503.00
2018-11-27T13:29:28.156Z,101503.00
2018-11-27T13:34:58.301Z,101510.00
2018-11-27T13:37:27.536Z,101508.00
2018-11-27T13:39:56.988Z,101509.00
2018-11-27T13:42:26.722Z,101507.00
2018-11-27T13:44:56.178Z,101516.00
2018-11-27T13:47:25.388Z,101511.00
2018-11-27T13:49:57.141Z,101519.00
2018-11-27T13:52:26.480Z,101522.00
2018-11-27T13:54:55.809Z,101533.00
2018-11-27T13:57:28.318Z,101529.00
2018-11-27T14:00:06.413Z,101528.00
2018-11-27T14:02:34.749Z,101520.00
2018-11-27T14:05:03.960Z,101526.00
2018-11-27T14:07:33.147Z,101520.00
2018-11-27T14:10:02.798Z,101518.00
2018-11-27T14:12:31.958Z,101523.00
2018-11-27T14:15:01.093Z,101516.00
2018-11-27T14:17:31.218Z,101511.00
2018-11-27T14:20:00.441Z,101517.00
2018-11-27T14:22:29.915Z,101527.00
2018-11-27T14:25:00.250Z,101531.00
2018-11-27T14:27:29.675Z,101535.00
2018-11-27T14:29:59.850Z,101541.00
2018-11-27T14:32:45.923Z,101536.00
2018-11-27T14:35:18.772Z,101533.00
2018-11-27T14:37:51.380Z,101531.00
2018-11-27T14:40:28.251Z,101539.00
2018-11-27T14:42:58.245Z,101536.00
2018-11-27T14:46:03.417Z,101539.00
2018-11-27T14:48:35.948Z,101541.00
2018-11-27T14:51:05.665Z,101527.00
2018-11-27T14:53:40.226Z,101531.00
2018-11-27T14:56:22.313Z,101532.00
2018-11-27T14:58:51.870Z,101537.00
2018-11-27T15:01:20.994Z,101533.00
2018-11-27T15:04:06.793Z,101537.00
2018-11-27T15:13:31.534Z,101529.00
2018-11-27T15:48:10.600Z,101555.00
2018-11-27T15:50:39.956Z,101560.00
2018-11-27T15:53:09.726Z,101558.00
2018-11-27T15:55:49.833Z,101565.00
2018-11-27T15:58:20.335Z,101565.00
2018-11-27T16:00:49.729Z,101570.00
2018-11-27T16:03:18.951Z,101579.00
2018-11-27T16:05:48.313Z,101575.00
2018-11-27T16:08:17.656Z,101575.00
2018-11-27T16:10:47.083Z,101567.00
2018-11-27T16:13:16.618Z,101573.00
2018-11-27T16:15:45.769Z,101571.00
2018-11-27T16:18:15.611Z,101573.00
2018-11-27T16:23:31.678Z,101575.00
2018-11-27T16:26:00.974Z,101582.00
2018-11-27T16:28:30.986Z,101585.00
2018-11-27T16:31:00.210Z,101583.00
2018-11-27T16:33:53.699Z,101584.00
2018-11-27T16:39:39.420Z,101584.00
2018-11-27T16:42:10.718Z,101579.00
2018-11-27T16:45:19.248Z,101581.00
2018-11-27T16:47:55.689Z,101585.00
2018-11-27T16:57:48.118Z,101594.00
2018-11-27T17:00:31.361Z,101602.00
2018-11-27T17:37:05.229Z,101628.00
2018-11-27T17:39:53.822Z,101633.00
2018-11-27T17:52:24.214Z,101630.00
2018-11-27T17:55:07.726Z,101623.00
2018-11-27T17:57:51.705Z,101631.00
2018-11-27T18:00:28.829Z,101629.00
2018-11-27T18:03:03.276Z,101631.00
2018-11-27T18:05:33.988Z,101629.00
2018-11-27T18:08:05.316Z,101648.00
2018-11-27T18:10:36.609Z,101649.00
2018-11-27T18:13:07.267Z,101653.00
2018-11-27T18:15:39.306Z,101650.00
2018-11-27T18:18:09.160Z,101661.00
2018-11-27T18:20:38.573Z,101654.00
2018-11-27T18:23:08.634Z,101667.00
2018-11-27T18:25:38.187Z,101663.00
2018-11-27T18:28:07.627Z,101676.00
2018-11-27T18:30:36.823Z,101673.00
2018-11-27T18:33:06.787Z,101681.00
2018-11-27T18:35:36.740Z,101674.00
2018-11-27T18:38:07.414Z,101667.00
2018-11-27T18:40:41.176Z,101674.00
2018-11-27T18:43:39.219Z,101676.00
2018-11-27T18:46:11.835Z,101677.00
2018-11-27T18:51:39.989Z,101674.00
2018-11-27T18:54:12.887Z,101674.00
2018-11-27T18:56:42.563Z,101678.00
2018-11-27T18:59:14.587Z,101677.00
2018-11-27T19:01:46.448Z,101682.00
2018-11-27T19:04:53.773Z,101687.00
2018-11-27T19:07:27.707Z,101689.00
2018-11-27T19:09:57.174Z,101692.00
2018-11-27T19:12:26.851Z,101692.00
2018-11-27T19:15:00.654Z,101695.00
2018-11-27T19:17:31.404Z,101691.00
2018-11-27T19:20:15.773Z,101696.00
2018-11-27T19:23:18.087Z,101686.00
2018-11-27T19:26:15.535Z,101685.00
2018-11-27T19:28:45.815Z,101691.00
2018-11-27T19:31:20.796Z,101696.00
2018-11-27T19:33:50.084Z,101699.00
2018-11-27T19:36:21.585Z,101693.00
2018-11-27T19:38:52.300Z,101706.00
2018-11-27T19:41:22.016Z,101717.00
2018-11-27T19:43:51.782Z,101717.00
2018-11-27T19:46:21.453Z,101709.00
2018-11-27T19:48:53.436Z,101703.00
2018-11-27T19:51:20.748Z,101708.00
2018-11-27T19:53:50.163Z,101703.00
2018-11-27T19:56:19.702Z,101710.00
2018-11-27T19:58:49.092Z,101717.00
2018-11-27T20:01:18.280Z,101727.00
2018-11-27T20:03:47.505Z,101724.00
2018-11-27T20:06:17.187Z,101727.00
2018-11-27T20:08:46.598Z,101722.00
2018-11-27T20:11:16.672Z,101730.00
2018-11-27T20:13:45.899Z,101724.00
2018-11-27T20:16:15.617Z,101729.00
2018-11-27T20:18:44.797Z,101734.00
2018-11-27T20:21:13.969Z,101732.00
2018-11-27T20:23:43.429Z,101734.00
2018-11-27T20:26:13.832Z,101733.00
2018-11-27T20:28:42.953Z,101733.00
2018-11-27T20:31:12.237Z,101743.00
2018-11-27T20:33:41.656Z,101751.00
2018-11-27T20:36:10.987Z,101753.00
2018-11-27T20:38:40.417Z,101743.00
2018-11-27T20:41:09.884Z,101742.00
2018-11-27T20:43:39.425Z,101744.00
2018-11-27T20:46:09.435Z,101734.00
2018-11-27T20:48:38.786Z,101727.00
2018-11-27T20:51:08.139Z,101730.00
2018-11-27T20:53:37.578Z,101740.00
2018-11-27T20:56:09.505Z,101734.00
2018-11-27T20:58:39.029Z,101729.00
2018-11-27T21:01:09.608Z,101723.00
2018-11-27T21:03:38.770Z,101729.00
2018-11-27T21:06:08.355Z,101720.00
2018-11-27T21:08:37.932Z,101713.00
2018-11-27T21:11:08.455Z,101702.00
2018-11-27T21:13:37.722Z,101699.00
2018-11-27T21:16:08.294Z,101707.00
2018-11-27T21:18:41.476Z,101706.00
2018-11-27T21:21:11.216Z,101705.00
2018-11-27T21:23:41.875Z,101715.00
2018-11-27T21:26:11.521Z,101716.00
2018-11-27T21:28:41.845Z,101728.00
2018-11-27T21:31:11.483Z,101724.00
2018-11-27T21:33:42.191Z,101721.00
2018-11-27T21:36:12.289Z,101713.00
2018-11-27T21:38:41.753Z,101708.00
2018-11-27T21:41:11.089Z,101714.00
2018-11-27T21:43:41.427Z,101708.00
2018-11-27T21:46:12.022Z,101720.00
2018-11-27T21:48:41.472Z,101723.00
2018-11-27T21:51:10.935Z,101711.00
2018-11-27T21:53:41.429Z,101711.00
2018-11-27T21:56:11.013Z,101701.00
2018-11-27T21:58:40.626Z,101698.00
2018-11-27T22:01:12.102Z,101711.00
2018-11-27T22:03:43.221Z,101716.00
2018-11-27T22:06:12.530Z,101708.00
2018-11-27T22:08:50.063Z,101713.00
2018-11-27T22:11:19.841Z,101718.00
2018-11-27T22:13:49.319Z,101712.00
2018-11-27T22:16:18.840Z,101700.00
2018-11-27T22:18:51.013Z,101718.00
2018-11-27T22:21:21.249Z,101723.00
2018-11-27T22:23:52.307Z,101725.00
2018-11-27T22:26:22.041Z,101724.00
2018-11-27T22:28:51.289Z,101720.00
2018-11-27T22:31:21.194Z,101728.00
2018-11-27T22:33:50.670Z,101719.00
2018-11-27T22:36:21.099Z,101766.00
2018-11-27T22:38:50.764Z,101727.00
2018-11-27T22:41:19.909Z,101724.00
2018-11-27T22:43:49.045Z,101729.00
2018-11-27T22:46:18.488Z,101733.00
2018-11-27T22:48:48.891Z,101732.00
2018-11-27T22:51:43.224Z,101738.00
2018-11-27T22:54:12.393Z,101732.00
2018-11-27T22:56:41.603Z,101737.00
2018-11-27T22:59:10.799Z,101739.00
2018-11-27T23:01:40.587Z,101730.00
2018-11-27T23:04:09.884Z,101728.00
2018-11-27T23:06:39.401Z,101733.00
2018-11-27T23:09:10.303Z,101733.00
2018-11-27T23:11:39.496Z,101735.00
2018-11-27T23:14:08.600Z,101738.00
2018-11-27T23:16:38.552Z,101733.00
2018-11-27T23:19:07.850Z,101732.00
2018-11-27T23:21:37.070Z,101738.00
2018-11-27T23:24:07.107Z,101731.00
2018-11-27T23:26:36.642Z,101739.00
2018-11-27T23:29:06.927Z,101734.00
2018-11-27T23:31:46.181Z,101734.00
2018-11-27T23:35:16.785Z,101741.00
2018-11-27T23:47:30.340Z,101734.00
2018-11-27T23:49:59.778Z,101734.00
2018-11-27T23:57:37.151Z,101740.00
